createdAt,value
2023-01-18T00:00:32.495Z,4.40
2023-01-18T00:03:00.872Z,4.40
2023-01-18T00:05:28.708Z,4.40
2023-01-18T00:07:56.562Z,4.40
2023-01-18T00:10:25.698Z,4.40
2023-01-18T00:12:53.510Z,4.40
2023-01-18T00:15:21.305Z,4.40
2023-01-18T00:17:51.748Z,4.40
2023-01-18T00:20:21.575Z,4.40
2023-01-18T00:22:49.768Z,4.40
2023-01-18T00:25:18.207Z,4.40
2023-01-18T00:27:50.382Z,4.40
2023-01-18T00:30:20.613Z,4.40
2023-01-18T00:32:48.773Z,4.30
2023-01-18T00:35:17.098Z,4.30
2023-01-18T00:37:45.225Z,4.20
2023-01-18T00:40:13.331Z,4.20
2023-01-18T00:43:01.580Z,4.10
2023-01-18T00:45:30.712Z,4.20
2023-01-18T00:47:59.117Z,4.20
2023-01-18T00:50:26.891Z,4.10
2023-01-18T00:52:57.729Z,4.10
2023-01-18T00:55:25.850Z,4.10
2023-01-18T00:57:53.749Z,4.10
2023-01-18T01:00:26.605Z,4.10
2023-01-18T01:02:56.517Z,4.00
2023-01-18T01:05:44.220Z,4.00
2023-01-18T01:08:17.688Z,4.00
2023-01-18T01:10:46.621Z,3.90
2023-01-18T01:13:32.663Z,3.90
2023-01-18T01:16:18.186Z,3.90
2023-01-18T01:19:04.997Z,3.90
2023-01-18T01:21:50.531Z,3.80
2023-01-18T01:24:35.900Z,3.80
2023-01-18T01:27:03.695Z,3.80
2023-01-18T01:29:31.552Z,3.80
2023-01-18T01:31:59.605Z,3.70
2023-01-18T01:34:29.698Z,3.70
2023-01-18T01:36:57.781Z,3.70
2023-01-18T01:39:25.675Z,3.70
2023-01-18T01:41:53.515Z,3.70
2023-01-18T01:44:47.929Z,3.70
2023-01-18T01:47:32.803Z,3.70
2023-01-18T01:50:07.654Z,3.70
2023-01-18T01:52:38.616Z,3.70
2023-01-18T01:55:12.092Z,3.70
2023-01-18T01:57:43.747Z,3.70
2023-01-18T02:00:15.472Z,3.70
2023-01-18T02:02:45.118Z,3.70
2023-01-18T02:05:16.940Z,3.70
2023-01-18T02:07:45.315Z,3.70
2023-01-18T02:10:13.473Z,3.60
2023-01-18T02:12:43.129Z,3.60
2023-01-18T02:15:12.731Z,3.70
2023-01-18T02:17:59.511Z,3.70
2023-01-18T02:21:18.302Z,3.70
2023-01-18T02:24:25.194Z,3.70
2023-01-18T02:26:58.419Z,3.70
2023-01-18T02:29:41.739Z,3.70
2023-01-18T02:32:21.675Z,3.80
2023-01-18T02:34:51.154Z,3.80
2023-01-18T02:37:25.363Z,3.80
2023-01-18T02:40:05.529Z,3.80
2023-01-18T02:42:52.419Z,3.80
2023-01-18T02:45:44.347Z,3.80
2023-01-18T02:48:12.896Z,3.80
2023-01-18T02:50:40.756Z,3.80
2023-01-18T02:53:08.561Z,3.90
2023-01-18T02:55:41.999Z,3.80
2023-01-18T02:58:16.501Z,3.80
2023-01-18T03:00:50.995Z,3.90
2023-01-18T03:03:21.751Z,3.90
2023-01-18T03:05:51.686Z,3.90
2023-01-18T03:08:25.086Z,3.90
2023-01-18T03:11:00.921Z,3.90
2023-01-18T03:13:53.300Z,3.90
2023-01-18T03:16:24.905Z,4.10
2023-01-18T03:19:04.178Z,3.90
2023-01-18T03:21:44.269Z,3.90
2023-01-18T03:24:13.042Z,4.00
2023-01-18T03:26:43.758Z,3.90
2023-01-18T03:29:32.038Z,3.90
2023-01-18T03:32:21.865Z,3.90
2023-01-18T03:34:54.482Z,3.90
2023-01-18T03:37:27.765Z,4.00
2023-01-18T03:40:00.259Z,3.90
2023-01-18T03:42:32.572Z,3.90
2023-01-18T03:45:04.045Z,3.90
2023-01-18T03:47:33.623Z,4.00
2023-01-18T03:50:01.957Z,4.00
2023-01-18T03:52:37.726Z,4.00
2023-01-18T03:55:11.936Z,4.00
2023-01-18T03:57:44.565Z,4.00
2023-01-18T04:00:14.615Z,4.00
2023-01-18T04:02:45.279Z,4.00
2023-01-18T04:05:13.952Z,4.00
2023-01-18T04:07:41.787Z,4.00
2023-01-18T04:10:11.234Z,4.00
2023-01-18T04:12:39.019Z,4.00
2023-01-18T04:15:07.880Z,4.00
2023-01-18T04:17:35.731Z,4.00
2023-01-18T04:20:05.855Z,3.90
2023-01-18T04:22:33.924Z,3.90
2023-01-18T04:25:01.736Z,3.90
2023-01-18T04:27:30.232Z,3.90
2023-01-18T04:29:58.558Z,3.90
2023-01-18T04:32:26.414Z,3.90
2023-01-18T04:34:54.491Z,3.90
2023-01-18T04:37:31.146Z,3.90
2023-01-18T04:39:58.932Z,3.90
2023-01-18T04:42:27.266Z,3.90
2023-01-18T04:44:55.102Z,4.00
2023-01-18T04:47:23.233Z,4.00
2023-01-18T04:49:51.015Z,4.00
2023-01-18T04:52:19.278Z,3.90
2023-01-18T04:54:48.524Z,4.00
2023-01-18T04:57:16.600Z,4.00
2023-01-18T04:59:45.876Z,4.00
2023-01-18T05:02:15.250Z,4.00
2023-01-18T05:04:43.501Z,4.00
2023-01-18T05:07:11.769Z,4.00
2023-01-18T05:09:39.554Z,4.20
2023-01-18T05:12:09.129Z,4.00
2023-01-18T05:14:36.917Z,3.90
2023-01-18T05:17:04.699Z,4.00
2023-01-18T05:19:32.530Z,4.00
2023-01-18T05:22:00.330Z,4.00
2023-01-18T05:24:29.880Z,4.00
2023-01-18T05:26:58.026Z,4.00
2023-01-18T05:29:27.221Z,4.00
2023-01-18T05:31:55.045Z,4.00
2023-01-18T05:34:22.894Z,3.90
2023-01-18T05:36:50.681Z,3.90
2023-01-18T05:39:18.437Z,3.90
2023-01-18T05:41:46.220Z,4.00
2023-01-18T05:44:14.125Z,4.00
2023-01-18T05:46:43.286Z,4.00
2023-01-18T05:49:11.116Z,4.00
2023-01-18T05:51:38.916Z,4.00
2023-01-18T05:54:06.765Z,3.90
2023-01-18T05:56:35.291Z,3.90
2023-01-18T05:59:03.083Z,3.90
2023-01-18T06:01:30.931Z,3.90
2023-01-18T06:04:00.072Z,3.90
2023-01-18T06:06:27.929Z,3.90
2023-01-18T06:08:55.889Z,3.90
2023-01-18T06:11:23.661Z,3.90
2023-01-18T06:13:52.255Z,3.90
2023-01-18T06:16:20.442Z,3.90
2023-01-18T06:18:48.234Z,3.90
2023-01-18T06:21:17.949Z,3.90
2023-01-18T06:23:45.935Z,3.90
2023-01-18T06:26:13.738Z,3.90
2023-01-18T06:28:41.536Z,3.90
2023-01-18T06:31:10.483Z,3.80
2023-01-18T06:33:38.490Z,3.90
2023-01-18T06:36:06.859Z,3.90
2023-01-18T06:38:36.077Z,3.90
2023-01-18T06:41:03.828Z,3.90
2023-01-18T06:43:32.403Z,3.90
2023-01-18T06:46:01.412Z,3.90
2023-01-18T06:48:29.819Z,3.90
2023-01-18T06:50:58.409Z,3.90
2023-01-18T06:53:26.655Z,3.80
2023-01-18T06:55:57.863Z,3.80
2023-01-18T06:58:26.861Z,3.80
2023-01-18T07:00:56.093Z,3.90
2023-01-18T07:03:24.319Z,3.90
2023-01-18T07:05:53.982Z,3.90
2023-01-18T07:08:22.172Z,3.90
2023-01-18T07:10:52.490Z,3.90
2023-01-18T07:13:22.054Z,3.90
2023-01-18T07:15:56.414Z,3.90
2023-01-18T07:18:24.405Z,3.80
2023-01-18T07:20:58.415Z,3.90
2023-01-18T07:23:26.779Z,3.90
2023-01-18T07:26:02.810Z,3.90
2023-01-18T07:28:33.267Z,3.90
2023-01-18T07:31:02.059Z,3.90
2023-01-18T07:33:30.534Z,3.90
2023-01-18T07:35:59.030Z,3.90
2023-01-18T07:38:27.461Z,3.90
2023-01-18T07:41:02.039Z,4.00
2023-01-18T07:43:31.966Z,4.00
2023-01-18T07:46:00.404Z,4.00
2023-01-18T07:48:29.263Z,4.00
2023-01-18T07:50:58.432Z,4.00
2023-01-18T07:53:27.804Z,4.00
2023-01-18T07:55:59.443Z,4.70
2023-01-18T07:58:27.617Z,4.10
2023-01-18T08:00:56.953Z,4.10
2023-01-18T08:03:24.827Z,4.10
2023-01-18T08:05:52.607Z,4.10
2023-01-18T08:08:20.399Z,4.10
2023-01-18T08:10:48.165Z,4.10
2023-01-18T08:13:15.973Z,4.10
2023-01-18T08:15:43.806Z,4.10
2023-01-18T08:18:14.285Z,4.10
2023-01-18T08:20:44.545Z,4.20
2023-01-18T08:23:12.412Z,4.20
2023-01-18T08:25:40.272Z,4.20
2023-01-18T08:28:08.687Z,4.30
2023-01-18T08:30:38.446Z,4.30
2023-01-18T08:33:07.708Z,4.30
2023-01-18T08:35:44.010Z,4.40
2023-01-18T08:38:12.768Z,4.40
2023-01-18T08:40:40.630Z,4.40
2023-01-18T08:43:08.861Z,4.40
2023-01-18T08:45:36.683Z,4.40
2023-01-18T08:48:06.552Z,4.40
2023-01-18T08:50:36.976Z,4.40
2023-01-18T08:53:04.963Z,4.40
2023-01-18T08:55:35.064Z,4.40
2023-01-18T08:58:02.830Z,4.40
2023-01-18T09:00:30.917Z,4.40
2023-01-18T09:02:59.743Z,4.50
2023-01-18T09:05:28.702Z,4.50
2023-01-18T09:07:57.913Z,4.50
2023-01-18T09:10:25.988Z,4.50
2023-01-18T09:12:54.987Z,4.50
2023-01-18T09:15:22.774Z,4.50
2023-01-18T09:17:50.622Z,4.50
2023-01-18T09:20:19.188Z,4.50
2023-01-18T09:22:47.775Z,4.60
2023-01-18T09:25:18.406Z,4.60
2023-01-18T09:27:46.764Z,4.60
2023-01-18T09:30:16.028Z,4.60
2023-01-18T09:32:43.931Z,4.60
2023-01-18T09:35:11.746Z,4.60
2023-01-18T09:37:39.516Z,4.70
2023-01-18T09:40:08.808Z,4.70
2023-01-18T09:42:44.494Z,4.70
2023-01-18T09:45:26.975Z,4.70
2023-01-18T09:47:59.707Z,4.60
2023-01-18T09:50:27.368Z,4.60
2023-01-18T09:53:00.486Z,4.60
2023-01-18T09:55:37.665Z,4.60
2023-01-18T09:58:30.211Z,4.70
2023-01-18T10:01:05.505Z,4.60
2023-01-18T10:03:41.942Z,4.60
2023-01-18T10:06:15.507Z,4.60
2023-01-18T10:08:53.836Z,4.50
2023-01-18T10:11:30.365Z,4.60
2023-01-18T10:14:07.596Z,4.60
2023-01-18T10:16:37.761Z,4.50
2023-01-18T10:19:15.007Z,4.60
2023-01-18T10:21:52.558Z,4.60
2023-01-18T10:24:30.522Z,4.60
2023-01-18T10:27:10.943Z,4.60
2023-01-18T10:29:54.950Z,4.60
2023-01-18T10:32:24.746Z,4.50
2023-01-18T10:34:53.572Z,4.60
2023-01-18T10:37:30.246Z,4.60
2023-01-18T10:40:00.333Z,4.50
2023-01-18T10:42:35.060Z,4.60
2023-01-18T10:45:04.565Z,4.60
2023-01-18T10:47:33.999Z,4.60
2023-01-18T10:50:01.780Z,4.60
2023-01-18T10:52:31.386Z,4.60
2023-01-18T10:55:02.038Z,4.60
2023-01-18T10:57:31.813Z,4.60
2023-01-18T11:00:00.630Z,4.60
2023-01-18T11:02:35.471Z,4.60
2023-01-18T11:05:17.391Z,4.70
2023-01-18T11:07:45.386Z,4.70
2023-01-18T11:10:25.915Z,4.70
2023-01-18T11:12:54.282Z,4.70
2023-01-18T11:15:28.179Z,4.70
2023-01-18T11:18:11.958Z,4.80
2023-01-18T11:20:48.644Z,4.70
2023-01-18T11:23:25.429Z,4.80
2023-01-18T11:25:59.464Z,4.70
2023-01-18T11:28:31.115Z,4.70
2023-01-18T11:31:06.508Z,4.70
2023-01-18T11:33:36.078Z,4.70
2023-01-18T11:36:04.551Z,4.70
2023-01-18T11:38:34.283Z,4.60
2023-01-18T11:41:15.743Z,5.40
2023-01-18T11:43:52.844Z,4.70
2023-01-18T11:46:31.380Z,4.70
2023-01-18T11:49:08.342Z,4.60
2023-01-18T11:51:43.606Z,4.60
2023-01-18T11:54:22.578Z,4.60
2023-01-18T11:56:52.426Z,4.60
2023-01-18T11:59:26.691Z,4.60
2023-01-18T12:02:20.343Z,4.50
2023-01-18T12:05:05.289Z,4.50
2023-01-18T12:07:47.073Z,4.40
2023-01-18T12:10:23.444Z,4.50
2023-01-18T12:13:07.479Z,4.50
2023-01-18T12:15:57.339Z,4.50
2023-01-18T12:19:03.631Z,4.40
2023-01-18T12:21:44.466Z,4.40
2023-01-18T12:24:37.843Z,4.40
2023-01-18T12:27:14.788Z,4.50
2023-01-18T12:30:14.056Z,4.50
2023-01-18T12:33:07.784Z,4.60
2023-01-18T12:36:04.902Z,4.50
2023-01-18T12:38:34.678Z,4.50
2023-01-18T12:41:27.402Z,4.50
2023-01-18T12:44:05.575Z,4.60
2023-01-18T12:46:40.001Z,4.80
2023-01-18T12:49:17.289Z,5.60
2023-01-18T12:51:46.535Z,4.80
2023-01-18T12:54:21.711Z,4.80
2023-01-18T12:56:53.646Z,4.70
2023-01-18T12:59:25.247Z,4.70
2023-01-18T13:02:00.371Z,5.20
2023-01-18T13:04:33.594Z,4.60
2023-01-18T13:07:07.111Z,4.60
2023-01-18T13:09:42.063Z,4.80
2023-01-18T13:12:10.505Z,5.00
2023-01-18T13:14:44.432Z,5.70
2023-01-18T13:17:20.525Z,4.90
2023-01-18T13:19:54.863Z,5.60
2023-01-18T13:22:31.600Z,5.60
2023-01-18T13:25:28.315Z,5.80
2023-01-18T13:28:01.848Z,5.70
2023-01-18T13:30:32.432Z,5.70
2023-01-18T13:33:00.646Z,5.30
2023-01-18T13:35:33.219Z,4.90
2023-01-18T13:38:03.140Z,4.70
2023-01-18T13:40:38.553Z,4.90
2023-01-18T13:43:26.056Z,4.70
2023-01-18T13:46:02.910Z,4.50
2023-01-18T13:48:42.445Z,4.50
2023-01-18T13:51:10.336Z,4.50
2023-01-18T13:53:50.380Z,4.40
2023-01-18T13:56:29.694Z,3.90
2023-01-18T13:59:03.447Z,4.30
2023-01-18T14:01:35.269Z,3.90
2023-01-18T14:04:16.423Z,4.10
2023-01-18T14:06:46.501Z,4.10
2023-01-18T14:09:18.306Z,4.10
2023-01-18T14:11:54.889Z,4.00
2023-01-18T14:14:29.721Z,4.00
2023-01-18T14:17:00.787Z,4.00
2023-01-18T14:19:30.423Z,4.00
2023-01-18T14:22:12.605Z,4.00
2023-01-18T14:24:58.670Z,4.00
2023-01-18T14:27:33.407Z,3.90
2023-01-18T14:30:06.708Z,4.00
2023-01-18T14:32:38.685Z,4.00
2023-01-18T14:35:19.573Z,5.00
2023-01-18T14:37:47.789Z,4.00
2023-01-18T14:40:19.004Z,4.00
2023-01-18T14:42:51.924Z,3.90
2023-01-18T14:45:27.013Z,4.00
2023-01-18T14:47:56.256Z,4.00
2023-01-18T14:50:26.195Z,4.10
2023-01-18T14:52:54.406Z,4.00
2023-01-18T14:55:28.885Z,4.00
2023-01-18T14:58:11.463Z,4.00
2023-01-18T15:00:48.782Z,3.90
2023-01-18T15:03:24.149Z,3.90
2023-01-18T15:05:58.507Z,3.80
2023-01-18T15:08:28.223Z,3.90
2023-01-18T15:10:56.320Z,3.90
2023-01-18T15:13:27.541Z,3.80
2023-01-18T15:15:58.758Z,3.70
2023-01-18T15:18:29.617Z,3.70
2023-01-18T15:21:01.034Z,3.70
2023-01-18T15:23:30.584Z,3.70
2023-01-18T15:25:59.428Z,3.70
2023-01-18T15:28:33.909Z,3.70
2023-01-18T15:31:07.142Z,3.60
2023-01-18T15:33:37.410Z,3.70
2023-01-18T15:36:06.078Z,3.70
2023-01-18T15:38:34.160Z,3.70
2023-01-18T15:41:05.194Z,3.70
2023-01-18T15:43:36.186Z,3.70
2023-01-18T15:46:07.855Z,3.60
2023-01-18T15:48:40.511Z,3.60
2023-01-18T15:51:10.993Z,3.60
2023-01-18T15:53:43.328Z,3.60
2023-01-18T15:56:16.727Z,3.60
2023-01-18T15:58:49.972Z,3.60
2023-01-18T16:01:20.788Z,3.50
2023-01-18T16:03:58.638Z,3.50
2023-01-18T16:06:32.810Z,3.60
2023-01-18T16:09:10.571Z,3.80
2023-01-18T16:11:46.416Z,3.60
2023-01-18T16:14:25.534Z,3.60
2023-01-18T16:16:54.194Z,3.60
2023-01-18T16:19:25.891Z,3.60
2023-01-18T16:21:57.513Z,3.50
2023-01-18T16:24:34.908Z,3.50
2023-01-18T16:27:11.253Z,3.50
2023-01-18T16:29:48.205Z,3.50
2023-01-18T16:32:30.401Z,3.30
2023-01-18T16:35:00.746Z,3.70
2023-01-18T16:37:28.740Z,3.40
2023-01-18T16:39:56.603Z,3.40
2023-01-18T16:42:36.971Z,3.60
2023-01-18T16:45:14.602Z,3.50
2023-01-18T16:47:42.695Z,3.50
2023-01-18T16:50:15.325Z,3.50
2023-01-18T16:52:43.162Z,3.50
2023-01-18T16:55:13.575Z,3.50
2023-01-18T16:57:42.213Z,3.50
2023-01-18T17:00:17.733Z,3.50
2023-01-18T17:02:45.943Z,3.50
2023-01-18T17:05:15.258Z,3.50
2023-01-18T17:07:43.554Z,3.50
2023-01-18T17:10:20.320Z,3.50
2023-01-18T17:12:48.212Z,3.50
2023-01-18T17:15:19.923Z,3.50
2023-01-18T17:17:48.111Z,3.50
2023-01-18T17:20:19.317Z,3.30
2023-01-18T17:22:47.233Z,3.50
2023-01-18T17:25:15.697Z,3.50
2023-01-18T17:27:44.129Z,3.50
2023-01-18T17:30:15.264Z,3.90
2023-01-18T17:32:46.862Z,3.50
2023-01-18T17:35:16.565Z,3.50
2023-01-18T17:37:44.438Z,3.50
2023-01-18T17:40:22.798Z,3.50
2023-01-18T17:42:52.569Z,3.40
2023-01-18T17:45:20.427Z,3.50
2023-01-18T17:47:49.664Z,3.70
2023-01-18T17:50:22.995Z,3.50
2023-01-18T17:52:50.924Z,3.50
2023-01-18T17:55:24.307Z,3.30
2023-01-18T17:57:56.165Z,3.40
2023-01-18T18:00:24.018Z,3.40
2023-01-18T18:02:56.969Z,3.50
2023-01-18T18:05:25.079Z,3.50
2023-01-18T18:07:52.978Z,3.50
2023-01-18T18:10:21.090Z,3.40
2023-01-18T18:12:49.020Z,3.40
2023-01-18T18:15:17.068Z,3.40
2023-01-18T18:17:44.932Z,4.00
2023-01-18T18:20:14.365Z,3.40
2023-01-18T18:22:42.297Z,3.40
2023-01-18T18:25:10.866Z,3.40
2023-01-18T18:27:47.317Z,3.40
2023-01-18T18:30:16.712Z,3.00
2023-01-18T18:32:44.663Z,3.40
2023-01-18T18:35:25.028Z,3.40
2023-01-18T18:37:55.387Z,3.40
2023-01-18T18:40:23.641Z,3.50
2023-01-18T18:43:07.389Z,3.50
2023-01-18T18:45:35.649Z,3.40
2023-01-18T18:48:03.534Z,3.50
2023-01-18T18:50:33.220Z,3.20
2023-01-18T18:53:01.497Z,3.40
2023-01-18T18:55:29.538Z,3.40
2023-01-18T18:57:57.625Z,2.70
2023-01-18T19:00:27.322Z,3.30
2023-01-18T19:02:59.143Z,3.30
2023-01-18T19:05:27.095Z,3.30
2023-01-18T19:07:56.476Z,3.30
2023-01-18T19:10:27.438Z,3.30
2023-01-18T19:12:55.601Z,3.10
2023-01-18T19:15:24.365Z,3.40
2023-01-18T19:17:53.115Z,3.30
2023-01-18T19:20:21.790Z,3.30
2023-01-18T19:22:50.532Z,3.20
2023-01-18T19:25:20.451Z,3.20
2023-01-18T19:27:48.341Z,3.20
2023-01-18T19:30:19.407Z,3.10
2023-01-18T19:32:48.933Z,4.10
2023-01-18T19:35:17.111Z,3.10
2023-01-18T19:37:46.460Z,3.10
2023-01-18T19:40:15.329Z,3.10
2023-01-18T19:42:46.570Z,3.20
2023-01-18T19:45:26.759Z,3.80
2023-01-18T19:47:56.698Z,3.20
2023-01-18T19:50:24.809Z,3.20
2023-01-18T19:52:52.798Z,3.10
2023-01-18T19:55:21.493Z,3.20
2023-01-18T19:57:50.984Z,3.20
2023-01-18T20:00:19.846Z,3.20
2023-01-18T20:02:47.806Z,3.20
2023-01-18T20:05:15.775Z,3.30
2023-01-18T20:07:43.669Z,3.20
2023-01-18T20:10:12.325Z,3.20
2023-01-18T20:12:40.240Z,3.20
2023-01-18T20:15:09.998Z,3.20
2023-01-18T20:17:38.659Z,3.20
2023-01-18T20:20:07.537Z,3.80
2023-01-18T20:22:35.413Z,3.30
2023-01-18T20:25:04.286Z,3.50
2023-01-18T20:27:32.121Z,3.30
2023-01-18T20:30:00.149Z,3.30
2023-01-18T20:32:29.357Z,3.30
2023-01-18T20:34:58.172Z,3.30
2023-01-18T20:37:26.012Z,3.30
2023-01-18T20:39:55.928Z,3.30
2023-01-18T20:42:23.786Z,3.30
2023-01-18T20:44:53.663Z,3.30
2023-01-18T20:47:21.804Z,3.30
2023-01-18T20:49:51.068Z,3.30
2023-01-18T20:52:18.900Z,3.50
2023-01-18T20:54:46.754Z,3.50
2023-01-18T20:57:14.595Z,3.30
2023-01-18T20:59:42.442Z,3.30
2023-01-18T21:02:11.066Z,3.30
2023-01-18T21:04:39.210Z,3.30
2023-01-18T21:07:08.400Z,3.20
2023-01-18T21:09:36.237Z,3.20
2023-01-18T21:12:04.116Z,3.20
2023-01-18T21:14:31.992Z,3.10
2023-01-18T21:16:59.892Z,3.20
2023-01-18T21:19:27.739Z,3.30
2023-01-18T21:21:55.578Z,3.30
2023-01-18T21:24:24.810Z,3.20
2023-01-18T21:26:52.689Z,3.20
2023-01-18T21:29:20.637Z,3.00
2023-01-18T21:31:48.514Z,3.20
2023-01-18T21:34:16.479Z,3.20
2023-01-18T21:36:44.340Z,3.20
2023-01-18T21:39:19.890Z,3.20
2023-01-18T21:42:06.665Z,3.20
2023-01-18T21:44:52.117Z,3.50
2023-01-18T21:47:19.980Z,3.10
2023-01-18T21:50:17.584Z,3.10
2023-01-18T21:53:03.496Z,3.10
2023-01-18T21:55:31.382Z,3.10
2023-01-18T21:58:18.422Z,3.00
2023-01-18T22:00:46.348Z,3.00
2023-01-18T22:03:15.271Z,3.10
2023-01-18T22:05:43.147Z,3.00
2023-01-18T22:08:11.131Z,3.00
2023-01-18T22:10:39.029Z,3.00
2023-01-18T22:13:08.214Z,3.70
2023-01-18T22:15:36.054Z,2.90
2023-01-18T22:18:04.251Z,2.90
2023-01-18T22:20:32.171Z,2.90
2023-01-18T22:23:00.207Z,2.90
2023-01-18T22:25:28.058Z,2.90
2023-01-18T22:27:55.883Z,2.80
2023-01-18T22:30:26.339Z,2.90
2023-01-18T22:32:54.185Z,2.90
2023-01-18T22:35:22.033Z,2.90
2023-01-18T22:37:49.906Z,2.90
2023-01-18T22:40:18.418Z,3.20
2023-01-18T22:42:46.724Z,2.90
2023-01-18T22:45:14.741Z,2.90
2023-01-18T22:47:43.920Z,2.90
2023-01-18T22:50:12.745Z,2.90
2023-01-18T22:52:40.610Z,3.00
2023-01-18T22:55:09.154Z,2.90
2023-01-18T22:57:37.104Z,2.90
2023-01-18T23:00:05.811Z,2.90
2023-01-18T23:02:33.699Z,2.90
2023-01-18T23:05:02.900Z,2.90
2023-01-18T23:07:30.806Z,2.80
2023-01-18T23:09:58.647Z,2.80
2023-01-18T23:12:26.551Z,2.80
2023-01-18T23:15:12.017Z,2.80
2023-01-18T23:17:39.860Z,2.80
2023-01-18T23:20:11.884Z,2.80
2023-01-18T23:22:39.711Z,2.70
2023-01-18T23:25:08.075Z,2.80
2023-01-18T23:27:35.889Z,2.80
2023-01-18T23:30:04.228Z,2.80
2023-01-18T23:32:33.205Z,2.80
2023-01-18T23:35:01.401Z,2.80
2023-01-18T23:37:31.091Z,2.80
2023-01-18T23:40:16.271Z,2.70
2023-01-18T23:43:01.565Z,2.70
2023-01-18T23:45:47.091Z,2.70
2023-01-18T23:48:34.101Z,2.70
2023-01-18T23:51:20.019Z,2.80
2023-01-18T23:54:06.648Z,2.80
2023-01-18T23:56:34.878Z,2.70
2023-01-18T23:59:03.319Z,2.70
